Time;durP1;ratioP1;P1;durP2;ratioP2;P2;SDS_P1;SDS_P2;PMS_P1;PMS_P2;Temp;Humidity;BMP_temperature;BMP_pressure;BME280_temperature;BME280_humidity;BME280_pressure;Samples;Min_cycle;Max_cycle;Signal;HPM_P1;HPM_P2
2024/04/01 00:07:16;;;;;;;14.05;4.43;;;;;;;8.09;100.00;97938.09;4712507;30;20526;-92
2024/04/01 01:04:52;;;;;;;11.75;4.45;;;;;;;7.67;100.00;97909.00;4733805;30;20472;-85
2024/04/01 01:17:02;;;;;;;14.80;5.80;;;;;;;7.62;100.00;97901.69;4796342;29;20548;-83
2024/04/01 01:19:52;;;;;;;13.25;5.22;;;;;;;7.61;100.00;97904.50;4794652;29;20093;-83
2024/04/01 01:23:11;;;;;;;14.07;6.07;;;;;;;7.66;100.00;97899.50;4827829;29;20607;-83
2024/04/01 01:26:00;;;;;;;15.52;4.85;;;;;;;7.62;100.00;97890.34;4814567;29;20057;-84
2024/04/01 01:28:38;;;;;;;14.75;5.82;;;;;;;7.71;100.00;97897.09;4841707;29;20064;-81
2024/04/01 01:31:13;;;;;;;12.38;4.97;;;;;;;7.66;100.00;97899.50;4831203;29;20037;-81
2024/04/01 01:34:05;;;;;;;11.88;5.93;;;;;;;7.73;100.00;97903.00;4815301;29;20057;-83
2024/04/01 01:36:51;;;;;;;11.23;5.38;;;;;;;7.78;100.00;97903.25;4848818;29;20045;-82
2024/04/01 01:39:17;;;;;;;17.17;5.30;;;;;;;7.67;100.00;97898.50;4844890;29;20654;-81
2024/04/01 01:41:43;;;;;;;11.80;4.55;;;;;;;7.69;100.00;97893.88;4851369;29;20073;-81
2024/04/01 01:44:39;;;;;;;16.10;5.15;;;;;;;7.68;100.00;97897.50;4847750;29;20038;-81
2024/04/01 01:54:17;;;;;;;9.82;5.53;;;;;;;7.73;100.00;97889.84;4828980;29;20094;-81
2024/04/01 01:57:31;;;;;;;17.42;6.20;;;;;;;7.76;100.00;97894.72;4826580;29;20037;-83
2024/04/01 02:00:13;;;;;;;17.30;6.18;;;;;;;7.80;100.00;97889.91;4823718;29;20111;-82
2024/04/01 02:02:43;;;;;;;8.13;5.38;;;;;;;7.78;100.00;97898.00;4826341;29;20041;-82
2024/04/01 02:05:31;;;;;;;13.85;5.63;;;;;;;7.75;100.00;97890.50;4804263;29;20038;-82
2024/04/01 02:08:57;;;;;;;20.02;7.30;;;;;;;7.76;100.00;97894.72;4824891;29;20215;-81
2024/04/01 02:12:12;;;;;;;22.85;5.88;;;;;;;7.68;100.00;97900.13;4757525;29;20047;-81
2024/04/01 02:14:39;;;;;;;14.95;6.15;;;;;;;7.70;100.00;97903.38;4807961;29;20083;-91
2024/04/01 02:18:13;;;;;;;18.73;6.53;;;;;;;7.71;100.00;97896.31;4779162;29;20155;-91
2024/04/01 02:21:07;;;;;;;14.60;5.70;;;;;;;7.68;100.00;97895.69;4827814;29;20030;-92
2024/04/01 02:27:11;;;;;;;17.58;6.55;;;;;;;7.68;100.00;97900.94;4841853;29;20173;-91
2024/04/01 02:29:48;;;;;;;21.30;6.28;;;;;;;7.66;100.00;97894.25;4828774;29;20065;-92
2024/04/01 02:32:18;;;;;;;18.75;6.43;;;;;;;7.72;100.00;97900.56;4826640;29;20045;-91
2024/04/01 02:34:54;;;;;;;16.55;7.05;;;;;;;7.72;100.00;97893.50;4814985;29;20128;-92
2024/04/01 02:38:44;;;;;;;12.45;6.80;;;;;;;7.65;100.00;97889.97;4846784;29;20522;-92
2024/04/01 02:41:37;;;;;;;15.75;6.55;;;;;;;7.57;100.00;97886.50;4831372;29;20068;-92
2024/04/01 02:44:09;;;;;;;17.58;6.78;;;;;;;7.53;100.00;97884.44;4799540;29;20053;-94
2024/04/01 02:51:33;;;;;;;19.23;6.90;;;;;;;7.54;100.00;97896.56;4752007;30;20052;-91
2024/04/01 02:54:48;;;;;;;14.98;6.82;;;;;;;7.60;100.00;97901.06;4777089;29;20489;-92
2024/04/01 02:58:31;;;;;;;17.27;8.10;;;;;;;7.56;100.00;97899.81;4787399;29;20051;-93
2024/04/01 03:09:13;;;;;;;19.48;7.75;;;;;;;7.61;100.00;97902.72;4775531;30;20173;-91
2024/04/01 03:13:03;;;;;;;14.90;7.20;;;;;;;7.66;100.00;97900.31;4736166;30;20096;-91
2024/04/01 03:17:23;;;;;;;;;;;;;;;;;;;;;
2024/04/01 03:40:15;;;;;;;16.63;8.43;;;;;;;7.79;100.00;97911.94;4773097;29;20046;-93
2024/04/01 03:52:11;;;;;;;20.55;9.80;;;;;;;7.84;100.00;97908.75;4805074;29;20091;-94
2024/04/01 04:00:13;;;;;;;21.50;10.07;;;;;;;7.87;100.00;97900.50;4745230;30;20461;-94
2024/04/01 04:11:59;;;;;;;14.20;8.20;;;;;;;7.80;100.00;97906.50;4660508;30;19963;-92
2024/04/01 04:33:33;;;;;;;17.92;8.85;;;;;;;7.90;100.00;97908.00;4660214;30;20099;-93
2024/04/01 04:36:09;;;;;;;15.45;7.53;;;;;;;7.88;100.00;97907.38;4708162;30;20069;-94
2024/04/01 04:39:19;;;;;;;19.23;9.75;;;;;;;7.89;100.00;97907.19;4759461;29;20060;-94
2024/04/01 04:46:11;;;;;;;15.07;7.40;;;;;;;7.88;100.00;97907.38;4843971;29;20038;-94
2024/04/01 04:49:18;;;;;;;21.67;8.90;;;;;;;7.92;100.00;97917.31;4848864;29;20038;-93
2024/04/01 04:51:53;;;;;;;17.05;7.72;;;;;;;7.92;100.00;97919.13;4831167;29;20056;-91
2024/04/01 04:54:22;;;;;;;19.85;8.07;;;;;;;7.92;100.00;97924.41;4829882;29;20073;-92
2024/04/01 04:56:48;;;;;;;18.17;8.77;;;;;;;7.91;100.00;97917.50;4827580;29;20041;-93
2024/04/01 04:59:14;;;;;;;18.98;7.78;;;;;;;7.92;100.00;97919.13;4829886;29;20487;-92
2024/04/01 05:01:43;;;;;;;12.73;7.28;;;;;;;7.91;100.00;97925.41;4816516;29;20128;-91
2024/04/01 05:04:34;;;;;;;16.90;7.47;;;;;;;7.88;100.00;97916.09;4829350;29;20120;-94
2024/04/01 05:07:29;;;;;;;15.23;9.05;;;;;;;7.84;100.00;97922.72;4844851;29;20037;-93
2024/04/01 05:09:55;;;;;;;16.77;8.52;;;;;;;7.83;100.00;97921.09;4830548;29;20463;-92
2024/04/01 05:12:21;;;;;;;14.73;8.40;;;;;;;7.91;100.00;97922.78;4830545;29;20045;-92
2024/04/01 05:14:53;;;;;;;15.25;8.55;;;;;;;7.91;100.00;97923.59;4826991;29;20452;-92
2024/04/01 05:17:25;;;;;;;17.48;9.20;;;;;;;8.01;100.00;97928.50;4840257;29;20078;-94
2024/04/01 05:19:52;;;;;;;16.38;8.68;;;;;;;7.95;100.00;97921.38;4820982;29;20046;-93
2024/04/01 05:22:31;;;;;;;18.20;7.75;;;;;;;8.03;100.00;97918.63;4832886;29;20085;-88
2024/04/01 05:24:57;;;;;;;18.83;8.02;;;;;;;7.94;100.00;97925.03;4824738;29;20065;-93
2024/04/01 05:27:24;;;;;;;16.77;8.93;;;;;;;7.95;100.00;97921.38;4819467;29;20471;-90
2024/04/01 05:30:04;;;;;;;15.68;9.90;;;;;;;8.01;100.00;97919.81;4828249;29;20121;-93
2024/04/01 05:32:33;;;;;;;14.38;8.52;;;;;;;7.96;100.00;97919.56;4828382;29;20041;-91
2024/04/01 05:35:00;;;;;;;15.23;7.82;;;;;;;8.00;100.00;97928.69;4814331;29;20044;-91
2024/04/01 05:37:27;;;;;;;17.98;8.57;;;;;;;7.93;100.00;97913.69;4815449;29;20869;-82
2024/04/01 05:39:53;;;;;;;18.83;8.95;;;;;;;7.94;100.00;97925.03;4839379;29;20033;-83
2024/04/01 05:42:20;;;;;;;15.35;7.85;;;;;;;7.96;100.00;97927.47;4826243;29;20776;-83
2024/04/01 05:45:04;;;;;;;16.15;7.72;;;;;;;8.02;100.00;97926.72;4823062;29;20042;-86
2024/04/01 05:47:30;;;;;;;16.33;8.48;;;;;;;7.96;100.00;97925.66;4856651;29;20033;-82
2024/04/01 05:49:56;;;;;;;20.27;8.73;;;;;;;7.89;100.00;97928.22;4855373;29;20041;-88
2024/04/01 05:52:27;;;;;;;13.48;8.60;;;;;;;7.90;100.00;97932.47;4810093;29;20068;-82
2024/04/01 05:54:54;;;;;;;22.90;8.90;;;;;;;7.92;100.00;97935.75;4840507;29;20045;-82
2024/04/01 05:57:25;;;;;;;16.33;8.73;;;;;;;7.92;100.00;97941.00;4828003;29;20461;-85
2024/04/01 05:59:51;;;;;;;17.85;8.25;;;;;;;7.93;100.00;97939.19;4823131;29;20479;-85
2024/04/01 06:02:17;;;;;;;16.25;9.48;;;;;;;7.86;100.00;97938.31;4823590;29;20056;-85
2024/04/01 06:04:43;;;;;;;16.20;8.43;;;;;;;7.82;100.00;97941.31;4812579;29;20038;-85
2024/04/01 06:07:12;;;;;;;17.70;9.50;;;;;;;7.84;100.00;97941.13;4842904;29;20061;-85
2024/04/01 06:09:50;;;;;;;21.00;7.18;;;;;;;7.82;100.00;97951.84;4837459;29;20037;-89
2024/04/01 06:15:12;;;;;;;18.02;7.35;;;;;;;7.74;100.00;97961.69;4846041;29;20154;-93
2024/04/01 06:17:58;;;;;;;14.02;7.82;;;;;;;7.71;100.00;97956.78;4815105;29;20198;-93
2024/04/01 06:20:36;;;;;;;13.68;8.32;;;;;;;7.70;100.00;97961.22;4820208;29;20046;-95
2024/04/01 06:23:02;;;;;;;17.60;8.02;;;;;;;7.73;100.00;97963.47;4829265;29;20511;-92
2024/04/01 06:26:01;;;;;;;11.68;8.38;;;;;;;7.78;100.00;97962.91;4827277;29;20046;-88
2024/04/01 06:28:30;;;;;;;14.70;8.52;;;;;;;7.78;100.00;97960.28;4832521;29;20046;-85
2024/04/01 06:31:08;;;;;;;18.95;8.63;;;;;;;7.80;100.00;97963.56;4824961;29;20472;-89
2024/04/01 06:33:37;;;;;;;14.57;9.35;;;;;;;7.72;100.00;97956.59;4838535;29;20054;-84
2024/04/01 06:36:16;;;;;;;17.38;9.00;;;;;;;7.76;100.00;97962.28;4813983;29;20073;-91
2024/04/01 06:39:22;;;;;;;16.40;8.68;;;;;;;7.77;100.00;97966.56;4810114;29;20077;-85
2024/04/01 06:41:55;;;;;;;14.35;7.38;;;;;;;7.80;100.00;97985.38;4814109;29;20125;-84
2024/04/01 06:44:22;;;;;;;15.68;8.70;;;;;;;7.76;100.00;97972.78;4813070;29;20123;-87
2024/04/01 06:46:57;;;;;;;19.05;8.65;;;;;;;7.72;100.00;97972.38;4810710;29;20041;-86
2024/04/01 06:49:26;;;;;;;11.20;7.10;;;;;;;7.71;100.00;97980.47;4810617;29;20491;-86
2024/04/01 06:51:52;;;;;;;11.85;7.80;;;;;;;7.67;100.00;97985.25;4808211;29;20454;-85
2024/04/01 06:54:26;;;;;;;19.52;8.57;;;;;;;7.75;100.00;97992.22;4808761;29;20056;-84
2024/04/01 06:56:52;;;;;;;16.52;8.10;;;;;;;7.72;100.00;97984.69;4808888;29;20041;-87
2024/04/01 06:59:20;;;;;;;12.10;8.23;;;;;;;7.73;100.00;97976.63;4810425;29;20041;-93
2024/04/01 07:01:49;;;;;;;10.55;7.93;;;;;;;7.72;100.00;97977.63;4817893;29;20798;-92
2024/04/01 07:04:15;;;;;;;10.82;8.27;;;;;;;7.74;100.00;97975.63;4796049;29;20045;-83
2024/04/01 07:06:41;;;;;;;16.52;8.48;;;;;;;7.72;100.00;97989.97;4815037;29;20153;-85
2024/04/01 07:09:10;;;;;;;12.98;7.43;;;;;;;7.74;100.00;97991.41;4811088;29;20103;-89
2024/04/01 07:11:37;;;;;;;12.85;8.65;;;;;;;7.74;100.00;97999.28;4811212;29;20062;-88
2024/04/01 07:14:06;;;;;;;13.25;8.63;;;;;;;7.72;100.00;97993.41;4840074;29;20050;-86
2024/04/01 07:16:32;;;;;;;11.57;7.72;;;;;;;7.65;100.00;97988.09;4821547;29;20061;-85
2024/04/01 07:19:04;;;;;;;14.05;8.55;;;;;;;7.74;100.00;97996.66;4846741;29;20060;-88
2024/04/01 07:21:32;;;;;;;18.42;9.40;;;;;;;7.76;100.00;97999.09;4837132;29;20057;-90
2024/04/01 07:24:06;;;;;;;13.57;7.85;;;;;;;7.73;100.00;97988.94;4828066;29;20049;-86
2024/04/01 07:26:35;;;;;;;16.27;7.55;;;;;;;7.77;100.00;98001.53;4847845;29;20072;-86
2024/04/01 07:29:01;;;;;;;11.48;6.93;;;;;;;7.72;100.00;98003.09;4844030;29;20097;-83
2024/04/01 07:31:32;;;;;;;12.70;7.88;;;;;;;7.79;100.00;97998.72;4827503;29;20108;-84
2024/04/01 07:33:58;;;;;;;16.17;7.95;;;;;;;7.73;100.00;97999.47;4858867;29;20044;-85
2024/04/01 07:36:32;;;;;;;11.43;7.72;;;;;;;7.75;100.00;97998.31;4813496;29;20048;-84
2024/04/01 07:39:02;;;;;;;14.25;7.57;;;;;;;7.80;100.00;97997.75;4859538;29;20486;-85
2024/04/01 07:41:41;;;;;;;10.88;7.10;;;;;;;7.80;100.00;97988.00;4858078;29;20064;-84
2024/04/01 07:44:14;;;;;;;10.85;7.13;;;;;;;7.78;100.00;97995.28;4816021;29;20041;-83
2024/04/01 07:46:48;;;;;;;15.75;7.82;;;;;;;7.84;100.00;97996.34;4835704;29;20105;-85
2024/04/01 07:49:23;;;;;;;11.18;7.32;;;;;;;7.85;100.00;98000.59;4840381;29;20038;-85
2024/04/01 07:51:55;;;;;;;12.10;6.60;;;;;;;7.87;100.00;98005.69;4860264;29;20044;-84
2024/04/01 07:54:34;;;;;;;;;;;;;;;;;;;;;
2024/04/01 07:58:38;;;;;;;13.23;7.07;;;;;;;7.99;100.00;98019.16;4845817;29;20056;-82
2024/04/01 08:01:13;;;;;;;13.32;7.15;;;;;;;7.94;100.00;98022.34;4802766;29;20068;-84
2024/04/01 08:04:19;;;;;;;13.55;6.80;;;;;;;7.82;100.00;98012.31;4804068;29;20409;-83
2024/04/01 08:06:51;;;;;;;9.18;6.80;;;;;;;7.98;100.00;98017.53;4803299;29;20050;-89
2024/04/01 08:09:36;;;;;;;11.00;7.22;;;;;;;7.92;100.00;98008.56;4819274;29;20057;-85
2024/04/01 08:12:17;;;;;;;10.57;7.13;;;;;;;7.90;100.00;98010.59;4847638;29;20037;-85
2024/04/01 08:14:48;;;;;;;12.85;6.90;;;;;;;7.89;100.00;98024.72;4850695;29;20460;-81
2024/04/01 08:17:24;;;;;;;9.30;5.90;;;;;;;7.99;100.00;98024.41;4813587;29;20076;-84
2024/04/01 08:19:50;;;;;;;10.27;5.93;;;;;;;7.90;100.00;98034.25;4802968;29;20104;-82
2024/04/01 08:22:16;;;;;;;11.77;6.95;;;;;;;7.91;100.00;98030.63;4823135;29;20049;-85
2024/04/01 08:24:42;;;;;;;7.82;6.13;;;;;;;7.86;100.00;98031.19;4798566;29;20045;-82
2024/04/01 08:27:09;;;;;;;16.52;6.25;;;;;;;7.90;100.00;98042.94;4812573;29;20109;-81
2024/04/01 08:29:38;;;;;;;14.98;7.43;;;;;;;7.94;100.00;98036.31;4808276;29;20046;-81
2024/04/01 08:32:04;;;;;;;14.77;6.07;;;;;;;7.99;100.00;98035.75;4800430;29;20057;-81
2024/04/01 08:34:39;;;;;;;10.25;6.72;;;;;;;8.00;100.00;98039.19;4801791;29;20559;-79
2024/04/01 08:37:05;;;;;;;12.07;6.55;;;;;;;8.05;100.00;98042.91;4806329;29;20410;-79
2024/04/01 08:39:40;;;;;;;16.73;6.43;;;;;;;8.09;100.00;98040.69;4822599;29;20038;-81
2024/04/01 08:42:32;;;;;;;9.00;5.77;;;;;;;8.13;100.00;98049.03;4821199;29;20098;-82
2024/04/01 08:45:14;;;;;;;7.80;6.15;;;;;;;8.17;100.00;98052.94;4836005;29;20503;-81
2024/04/01 08:48:21;;;;;;;10.98;6.82;;;;;;;8.23;100.00;98048.72;4795672;29;20053;-83
2024/04/01 08:51:21;;;;;;;10.20;6.00;;;;;;;8.28;100.00;98059.50;4793108;29;20046;-81
2024/04/01 08:54:00;;;;;;;10.85;6.70;;;;;;;8.31;100.00;98046.75;4833503;29;20042;-82
2024/04/01 08:56:29;;;;;;;12.73;7.15;;;;;;;8.38;100.00;98044.19;4806887;29;20048;-83
2024/04/01 08:59:06;;;;;;;10.02;6.35;;;;;;;8.46;100.00;98052.97;4819564;29;20046;-85
2024/04/01 09:01:42;;;;;;;15.48;6.30;;;;;;;8.46;100.00;98071.41;4816768;29;20124;-84
2024/04/01 09:04:09;;;;;;;11.80;4.80;;;;;;;8.38;100.00;98056.53;4806909;29;20041;-84
2024/04/01 09:06:35;;;;;;;14.10;5.72;;;;;;;8.39;100.00;98063.44;4834774;29;20037;-82
2024/04/01 09:09:04;;;;;;;9.30;5.07;;;;;;;8.38;100.00;98061.81;4804730;29;20036;-83
2024/04/01 09:11:30;;;;;;;9.60;4.65;;;;;;;8.35;100.00;98059.53;4822330;29;20041;-83
2024/04/01 09:13:56;;;;;;;8.65;4.95;;;;;;;8.42;100.00;98069.16;4832261;29;20045;-84
2024/04/01 09:16:24;;;;;;;9.93;4.50;;;;;;;8.47;100.00;98078.28;4830216;29;20101;-83
2024/04/01 09:18:51;;;;;;;7.60;4.88;;;;;;;8.38;100.00;98074.97;4841596;29;20045;-84
2024/04/01 09:21:21;;;;;;;10.88;5.47;;;;;;;8.51;100.00;98075.09;4822184;29;20616;-84
2024/04/01 09:23:53;;;;;;;7.75;5.57;;;;;;;8.51;100.00;98079.53;4824220;29;22920;-82
2024/04/01 09:30:01;;;;;;;8.30;4.30;;;;;;;8.53;100.00;98078.34;4827679;29;20049;-84
2024/04/01 09:33:04;;;;;;;8.13;4.90;;;;;;;8.61;100.00;98077.44;4851523;29;20116;-84
2024/04/01 09:39:14;;;;;;;5.53;3.45;;;;;;;8.49;100.00;98092.09;4820941;29;20049;-86
2024/04/01 09:41:51;;;;;;;;;;;;;;;;;;;;;
2024/04/01 09:45:12;;;;;;;;;;;;;;;;;;;;;
2024/04/01 09:52:34;;;;;;;4.35;3.60;;;;;;;8.75;100.00;98091.53;4858433;29;20052;-80
2024/04/01 09:55:43;;;;;;;9.00;5.03;;;;;;;8.81;100.00;98082.84;4852975;29;20045;-82
2024/04/01 10:11:17;;;;;;;11.63;5.30;;;;;;;9.18;100.00;98089.78;4857625;29;20185;-83
2024/04/01 10:14:21;;;;;;;11.57;5.28;;;;;;;9.24;100.00;98091.63;4843878;29;20041;-80
2024/04/01 10:17:30;;;;;;;6.07;4.70;;;;;;;9.22;100.00;98096.28;4842337;29;20067;-82
2024/04/01 10:20:11;;;;;;;8.82;5.00;;;;;;;9.32;100.00;98090.66;4827788;29;20477;-82
2024/04/01 10:23:29;;;;;;;13.43;5.57;;;;;;;9.35;100.00;98090.28;4840580;29;20574;-81
2024/04/01 10:26:50;;;;;;;10.20;5.28;;;;;;;9.42;100.00;98092.94;4838041;29;20041;-79
2024/04/01 10:30:38;;;;;;;6.75;3.80;;;;;;;9.16;100.00;98097.88;4839779;29;20037;-83
2024/04/01 10:33:38;;;;;;;3.17;2.30;;;;;;;9.08;100.00;98097.22;4826709;29;20141;-85
2024/04/01 10:36:11;;;;;;;4.78;3.55;;;;;;;9.13;100.00;98098.25;4826967;29;20045;-80
2024/04/01 10:39:10;;;;;;;5.82;4.50;;;;;;;9.15;100.00;98100.69;4827220;29;20482;-81
2024/04/01 10:42:07;;;;;;;5.75;3.65;;;;;;;9.32;100.00;98092.50;4857518;29;20495;-85
2024/04/01 10:44:43;;;;;;;4.85;4.30;;;;;;;9.37;100.00;98096.16;4838006;29;20042;-81
2024/04/01 10:47:09;;;;;;;4.45;3.38;;;;;;;9.35;100.00;98092.13;4826719;29;20037;-85
2024/04/01 10:53:01;;;;;;;10.13;3.90;;;;;;;9.21;100.00;98099.09;4840630;29;20052;-82
2024/04/01 10:59:43;;;;;;;6.38;2.72;;;;;;;9.53;100.00;98089.75;4809135;29;20053;-82
2024/04/01 11:03:11;;;;;;;5.07;3.47;;;;;;;9.60;100.00;98083.69;4830412;29;20057;-83
2024/04/01 11:06:21;;;;;;;4.60;2.85;;;;;;;9.68;100.00;98089.59;4792012;29;20042;-82
2024/04/01 11:09:12;;;;;;;9.25;3.08;;;;;;;9.55;100.00;98081.66;4797115;29;20045;-81
2024/04/01 11:12:24;;;;;;;3.70;2.40;;;;;;;9.46;100.00;98081.00;4857671;29;20532;-81
2024/04/01 11:14:54;;;;;;;3.42;2.55;;;;;;;9.42;100.00;98085.88;4841863;29;20501;-82
2024/04/01 11:18:16;;;;;;;4.63;3.10;;;;;;;9.67;100.00;98079.25;4858917;29;20054;-80
2024/04/01 11:21:52;;;;;;;6.63;3.40;;;;;;;9.97;100.00;98086.06;4849904;29;20057;-81
2024/04/01 11:24:46;;;;;;;4.45;3.75;;;;;;;10.22;100.00;98088.16;4802955;29;20128;-80
2024/04/01 11:27:35;;;;;;;3.90;2.80;;;;;;;10.11;100.00;98086.91;4846543;29;20704;-81
2024/04/01 11:30:26;;;;;;;3.88;3.38;;;;;;;10.05;100.00;98081.41;4843242;29;20464;-81
2024/04/01 11:33:09;;;;;;;6.07;3.35;;;;;;;10.22;100.00;98086.31;4807960;29;20041;-82
2024/04/01 11:36:07;;;;;;;5.90;4.05;;;;;;;10.22;100.00;98091.59;4857023;29;20106;-80
2024/04/01 11:38:39;;;;;;;5.65;4.03;;;;;;;10.23;100.00;98092.41;4816819;29;20058;-80
2024/04/01 11:41:08;;;;;;;4.40;3.40;;;;;;;10.20;100.00;98090.97;4840598;29;20052;-80
2024/04/01 11:43:35;;;;;;;5.05;3.58;;;;;;;10.13;100.00;98090.16;4822916;29;20440;-82
2024/04/01 11:46:08;;;;;;;3.50;2.85;;;;;;;10.09;100.00;98096.84;4826416;29;20033;-80
2024/04/01 11:48:38;;;;;;;4.85;3.38;;;;;;;10.15;100.00;98101.31;4854717;29;20499;-83
2024/04/01 11:51:15;;;;;;;7.45;3.35;;;;;;;10.22;100.00;98093.41;4823538;29;20390;-89
2024/04/01 11:54:32;;;;;;;3.00;2.70;;;;;;;10.03;100.00;98091.34;4822999;29;20045;-92
2024/04/01 12:05:21;;;;;;;4.47;2.58;;;;;;;9.80;100.00;98116.25;4785340;29;20161;-89
2024/04/01 12:07:50;;;;;;;4.78;2.80;;;;;;;9.83;100.00;98114.22;4816664;29;20041;-88
2024/04/01 12:10:47;;;;;;;4.47;2.92;;;;;;;9.93;100.00;98110.22;4828198;29;20140;-89
2024/04/01 12:14:07;;;;;;;3.55;2.55;;;;;;;9.98;100.00;98109.63;4840398;29;20050;-89
2024/04/01 12:16:36;;;;;;;3.20;2.00;;;;;;;9.86;100.00;98111.22;4827824;29;20074;-91
2024/04/01 12:19:15;;;;;;;3.20;1.98;;;;;;;9.90;100.00;98115.88;4831129;29;20042;-91
2024/04/01 12:21:50;;;;;;;;;;;;;;;9.78;100.00;98106.88;4856178;29;20060;-89
2024/04/01 12:24:58;;;;;;;1.23;1.13;;;;;;;9.80;100.00;98115.44;4807303;29;19960;-91
2024/04/01 12:28:45;;;;;;;;;;;;;;;;;;;;;
2024/04/01 12:31:44;;;;;;;4.18;1.63;;;;;;;9.85;100.00;98122.75;4820642;29;20049;-93
2024/04/01 12:39:29;;;;;;;1.90;0.77;;;;;;;9.76;100.00;98122.13;4817118;29;20053;-91
2024/04/01 12:46:48;;;;;;;0.70;0.70;;;;;;;9.81;100.00;98135.50;4775329;29;20051;-80
2024/04/01 12:49:26;;;;;;;0.65;0.60;;;;;;;9.93;100.00;98126.03;4786672;29;20058;-81
2024/04/01 12:51:57;;;;;;;1.52;1.20;;;;;;;9.87;100.00;98118.91;4786450;29;20557;-81
2024/04/01 12:59:10;;;;;;;2.15;1.90;;;;;;;10.21;100.00;98134.03;4758813;29;20046;-83
2024/04/01 13:02:17;;;;;;;3.22;1.48;;;;;;;10.23;100.00;98124.06;4780348;29;20058;-81
2024/04/01 13:05:38;;;;;;;1.83;1.73;;;;;;;10.33;100.00;98134.25;4747499;30;20054;-80
2024/04/01 13:08:11;;;;;;;3.03;1.70;;;;;;;10.42;100.00;98133.88;4800006;29;20037;-81
2024/04/01 13:10:55;;;;;;;;;;;;;;;;;;;;;
2024/04/01 13:14:19;;;;;;;2.78;1.70;;;;;;;10.46;100.00;98126.41;4836228;29;20063;-80
2024/04/01 13:17:04;;;;;;;2.00;1.60;;;;;;;10.49;100.00;98130.47;4805499;29;20065;-78
2024/04/01 13:20:02;;;;;;;2.00;1.90;;;;;;;10.85;100.00;98126.63;4836589;29;20040;-79
2024/04/01 13:22:40;;;;;;;2.00;1.70;;;;;;;10.87;100.00;98129.88;4833031;29;20491;-80
2024/04/01 13:29:09;;;;;;;3.97;0.50;;;;;;;10.95;100.00;98131.50;4847156;29;20649;-79
2024/04/01 13:32:05;;;;;;;0.73;0.50;;;;;;;11.00;100.00;98134.34;4829024;29;20075;-79
2024/04/01 13:34:49;;;;;;;0.93;0.50;;;;;;;10.97;100.00;98133.94;4859225;29;20487;-82
2024/04/01 13:38:07;;;;;;;1.58;0.40;;;;;;;10.92;100.00;98142.50;4854848;29;20468;-81
2024/04/01 13:40:50;;;;;;;1.20;0.40;;;;;;;10.98;100.00;98133.75;4834206;29;20029;-80
2024/04/01 13:43:50;;;;;;;2.60;0.40;;;;;;;11.00;100.00;98134.34;4858631;29;20033;-79
2024/04/01 13:46:54;;;;;;;1.27;0.38;;;;;;;11.06;100.00;98124.78;4812037;29;20118;-80
2024/04/01 13:49:26;;;;;;;1.13;0.40;;;;;;;10.99;100.00;98127.44;4845507;29;20059;-79
2024/04/01 13:52:26;;;;;;;1.08;0.40;;;;;;;11.07;100.00;98126.41;4828949;29;20164;-80
2024/04/01 13:55:21;;;;;;;0.65;0.20;;;;;;;10.92;100.00;98129.28;4810747;29;20037;-81
2024/04/01 13:58:18;;;;;;;1.73;0.25;;;;;;;11.03;100.00;98127.84;4862008;29;20141;-78
2024/04/01 14:00:52;;;;;;;0.40;0.30;;;;;;;10.98;100.00;98125.00;4841524;29;20490;-80
2024/04/01 14:03:37;;;;;;;2.58;0.60;;;;;;;11.02;100.00;98121.72;4845796;29;20178;-82
2024/04/01 14:06:18;;;;;;;1.35;0.80;;;;;;;11.08;100.00;98125.41;4851022;29;20557;-80
2024/04/01 14:08:53;;;;;;;1.05;0.85;;;;;;;11.11;100.00;98129.44;4840923;29;20125;-79
2024/04/01 14:12:26;;;;;;;2.35;0.60;;;;;;;11.19;100.00;98121.31;4845026;29;20661;-87
2024/04/01 14:15:44;;;;;;;3.67;2.17;;;;;;;11.33;100.00;98127.38;4843872;29;20081;-88
2024/04/01 14:21:42;;;;;;;1.77;1.33;;;;;;;11.49;100.00;98123.50;4834107;29;20041;-85
2024/04/01 14:24:34;;;;;;;1.30;1.20;;;;;;;11.62;100.00;98105.94;4831430;29;20077;-90
2024/04/01 14:27:10;;;;;;;2.00;1.15;;;;;;;11.71;100.00;98115.25;4859319;29;20035;-89
2024/04/01 14:30:23;;;;;;;5.10;1.25;;;;;;;11.58;100.00;98108.19;4835139;29;20136;-91
2024/04/01 14:33:51;;;;;;;1.60;0.20;;;;;;;11.50;100.00;98103.94;4841279;29;20054;-90
2024/04/01 14:37:10;;;;;;;0.10;0.10;;;;;;;11.57;100.00;98117.16;4841614;29;20572;-85
2024/04/01 14:39:38;;;;;;;0.30;0.30;;;;;;;11.61;100.00;98120.19;4856024;29;20045;-85
2024/04/01 14:42:10;;;;;;;0.28;0.17;;;;;;;11.58;100.00;98118.75;4826266;29;21654;-85
2024/04/01 14:44:36;;;;;;;0.35;0.20;;;;;;;11.64;100.00;98117.13;4828336;29;20037;-86
2024/04/01 14:47:13;;;;;;;4.82;0.25;;;;;;;11.74;100.00;98112.19;4804816;29;20164;-85
2024/04/01 14:50:10;;;;;;;1.38;0.20;;;;;;;11.76;100.00;98112.00;4826460;29;20037;-86
2024/04/01 14:52:37;;;;;;;0.55;0.20;;;;;;;11.64;100.00;98114.50;4842562;29;20508;-85
2024/04/01 14:55:06;;;;;;;0.60;0.30;;;;;;;11.62;100.00;98121.81;4842565;29;20080;-85
2024/04/01 14:57:34;;;;;;;1.15;0.10;;;;;;;11.64;100.00;98111.84;4815880;29;20041;-84
2024/04/01 15:00:02;;;;;;;0.47;0.30;;;;;;;11.62;100.00;98113.88;4811401;29;20391;-86
2024/04/01 15:02:28;;;;;;;0.35;0.20;;;;;;;11.53;100.00;98113.31;4839594;29;20128;-86
2024/04/01 15:04:54;;;;;;;0.20;0.10;;;;;;;11.50;100.00;98113.69;4829969;29;20041;-86
2024/04/01 15:07:21;;;;;;;0.45;0.20;;;;;;;11.54;100.00;98112.28;4813765;29;20479;-85
2024/04/01 15:09:54;;;;;;;0.60;0.45;;;;;;;11.56;100.00;98110.25;4811421;29;20041;-86
2024/04/01 15:12:20;;;;;;;0.43;0.30;;;;;;;11.31;100.00;98118.84;4827418;29;20041;-86
2024/04/01 15:14:56;;;;;;;0.45;0.17;;;;;;;11.40;100.00;98130.03;4827838;29;20041;-89
2024/04/01 15:17:25;;;;;;;0.45;0.30;;;;;;;11.32;100.00;98127.59;4820301;29;20050;-87
2024/04/01 15:20:05;;;;;;;0.52;0.10;;;;;;;11.26;100.00;98132.69;4810942;29;20044;-85
2024/04/01 15:22:34;;;;;;;0.65;0.20;;;;;;;11.20;100.00;98125.56;4822090;29;20120;-90
2024/04/01 15:26:33;;;;;;;0.77;0.50;;;;;;;11.16;100.00;98133.09;4772967;29;20042;-88
2024/04/01 15:33:14;;;;;;;0.50;0.28;;;;;;;11.20;100.00;98127.41;4800601;29;20058;-79
2024/04/01 15:36:20;;;;;;;0.43;0.32;;;;;;;11.14;100.00;98129.03;4698295;30;20327;-83
2024/04/01 15:39:00;;;;;;;0.47;0.20;;;;;;;10.99;100.00;98131.91;4699831;29;20801;-83
2024/04/01 15:41:29;;;;;;;0.63;0.40;;;;;;;10.97;100.00;98131.31;4768373;29;21126;-84
2024/04/01 15:48:20;;;;;;;1.35;0.60;;;;;;;11.06;100.00;98145.09;4773998;29;20103;-86
2024/04/01 15:51:15;;;;;;;1.23;0.70;;;;;;;11.14;100.00;98156.31;4765220;29;20107;-93
2024/04/01 15:53:59;;;;;;;2.10;0.90;;;;;;;11.09;100.00;98156.09;4777687;29;20046;-86
2024/04/01 15:56:35;;;;;;;0.93;0.77;;;;;;;11.03;100.00;98155.09;4812971;29;20735;-86
2024/04/01 15:59:10;;;;;;;1.30;0.68;;;;;;;11.06;100.00;98153.03;4823246;29;20076;-87
2024/04/01 16:02:05;;;;;;;1.77;1.08;;;;;;;11.10;100.00;98152.44;4820008;29;20503;-90
2024/04/01 16:04:46;;;;;;;1.83;1.00;;;;;;;10.97;100.00;98157.72;4795075;29;20105;-90
2024/04/01 16:07:15;;;;;;;1.10;0.80;;;;;;;10.96;100.00;98154.28;4813050;29;20044;-90
2024/04/01 16:09:46;;;;;;;1.95;0.80;;;;;;;10.90;100.00;98155.09;4816184;29;20320;-91
2024/04/01 16:12:28;;;;;;;1.48;1.00;;;;;;;10.88;100.00;98143.88;4813207;29;20048;-90
2024/04/01 16:15:12;;;;;;;1.05;0.70;;;;;;;10.89;100.00;98151.63;4807312;29;20128;-92
2024/04/01 16:17:44;;;;;;;0.60;0.60;;;;;;;10.72;100.00;98151.22;4833159;29;21895;-90
2024/04/01 16:20:18;;;;;;;0.43;0.40;;;;;;;10.74;100.00;98164.22;4812370;29;20060;-90
2024/04/01 16:23:14;;;;;;;0.40;0.40;;;;;;;10.70;100.00;98157.72;4838494;29;20049;-91
2024/04/01 16:26:26;;;;;;;1.85;0.60;;;;;;;10.90;100.00;98155.91;4821210;29;20045;-87
2024/04/01 16:29:14;;;;;;;1.20;0.60;;;;;;;10.84;100.00;98163.81;4826420;29;20056;-89
2024/04/01 16:32:26;;;;;;;1.55;0.55;;;;;;;10.69;100.00;98164.81;4826656;29;20141;-92
2024/04/01 16:34:58;;;;;;;0.88;0.47;;;;;;;10.45;100.00;98159.06;4823331;29;20072;-89
2024/04/01 16:37:34;;;;;;;0.70;0.70;;;;;;;10.36;100.00;98157.63;4822672;29;20052;-88
2024/04/01 16:40:07;;;;;;;1.08;0.80;;;;;;;10.46;100.00;98170.47;4807230;29;20041;-89
2024/04/01 16:42:34;;;;;;;1.38;0.70;;;;;;;10.37;100.00;98168.00;4820785;29;20037;-89
2024/04/01 16:45:21;;;;;;;0.80;0.65;;;;;;;10.31;100.00;98160.88;4826243;29;20045;-88